createdAt,value
2018-10-17T00:00:05.568Z,10.23
2018-10-17T00:02:33.798Z,10.00
2018-10-17T00:05:02.120Z,9.43
2018-10-17T00:07:30.370Z,11.13
2018-10-17T00:09:58.679Z,10.27
2018-10-17T00:12:27.005Z,10.00
2018-10-17T00:14:55.354Z,10.97
2018-10-17T00:17:23.631Z,11.83
2018-10-17T00:19:51.969Z,11.10
2018-10-17T00:22:20.385Z,11.87
2018-10-17T00:24:48.709Z,11.47
2018-10-17T00:27:17.033Z,10.57
2018-10-17T00:29:45.260Z,10.93
2018-10-17T00:32:13.524Z,10.77
2018-10-17T00:34:42.816Z,10.97
2018-10-17T00:37:11.161Z,10.33
2018-10-17T00:39:39.398Z,10.27
2018-10-17T00:42:07.689Z,11.33
2018-10-17T00:44:35.934Z,10.67
2018-10-17T00:47:04.315Z,10.83
2018-10-17T00:49:32.586Z,10.33
2018-10-17T00:52:00.921Z,10.13
2018-10-17T00:54:29.220Z,10.27
2018-10-17T00:56:57.485Z,11.30
2018-10-17T00:59:25.781Z,10.40
2018-10-17T01:01:54.045Z,10.20
2018-10-17T01:04:22.345Z,10.97
2018-10-17T01:06:51.692Z,12.80
2018-10-17T01:09:19.896Z,9.10
2018-10-17T01:11:48.125Z,10.90
2018-10-17T01:14:16.411Z,11.67
2018-10-17T01:16:44.696Z,10.70
2018-10-17T01:19:13.307Z,10.00
2018-10-17T01:21:41.537Z,10.90
2018-10-17T01:24:09.789Z,11.20
2018-10-17T01:26:38.028Z,10.80
2018-10-17T01:29:06.385Z,11.00
2018-10-17T01:31:34.634Z,10.70
2018-10-17T01:34:03.021Z,11.93
2018-10-17T01:36:31.269Z,11.40
2018-10-17T01:38:59.624Z,10.67
2018-10-17T01:41:27.867Z,10.73
2018-10-17T01:43:56.206Z,10.20
2018-10-17T01:46:24.668Z,11.43
2018-10-17T01:48:52.997Z,11.17
2018-10-17T01:51:21.276Z,10.27
2018-10-17T01:53:49.572Z,10.17
2018-10-17T01:56:17.889Z,10.33
2018-10-17T01:58:49.013Z,11.77
2018-10-17T02:01:17.290Z,10.00
2018-10-17T02:03:45.616Z,11.30
2018-10-17T02:06:13.940Z,11.00
2018-10-17T02:08:42.231Z,10.30
2018-10-17T02:11:10.509Z,10.53
2018-10-17T02:13:38.761Z,11.10
2018-10-17T02:16:07.032Z,10.60
2018-10-17T02:18:35.348Z,12.33
2018-10-17T02:21:03.616Z,11.40
2018-10-17T02:23:31.883Z,12.23
2018-10-17T02:26:00.201Z,10.37
2018-10-17T02:28:28.484Z,10.90
2018-10-17T02:30:56.811Z,11.50
2018-10-17T02:33:25.094Z,12.27
2018-10-17T02:35:53.430Z,12.50
2018-10-17T02:38:21.722Z,10.67
2018-10-17T02:40:50.479Z,10.47
2018-10-17T02:43:18.859Z,12.20
2018-10-17T02:45:47.173Z,10.27
2018-10-17T02:48:15.473Z,12.00
2018-10-17T02:50:43.847Z,10.90
2018-10-17T02:53:12.195Z,11.40
2018-10-17T02:55:40.405Z,11.27
2018-10-17T02:58:08.700Z,10.90
2018-10-17T03:00:37.031Z,11.73
2018-10-17T03:03:05.476Z,11.00
2018-10-17T03:05:33.797Z,10.03
2018-10-17T03:08:02.100Z,11.00
2018-10-17T03:10:30.375Z,10.47
2018-10-17T03:12:58.671Z,10.20
2018-10-17T03:15:26.893Z,11.10
2018-10-17T03:17:55.153Z,10.00
2018-10-17T03:20:23.452Z,11.10
2018-10-17T03:22:51.854Z,11.10
2018-10-17T03:25:20.170Z,10.93
2018-10-17T03:27:48.535Z,10.40
2018-10-17T03:30:16.725Z,9.87
2018-10-17T03:32:45.040Z,11.23
2018-10-17T03:35:13.428Z,10.63
2018-10-17T03:37:41.591Z,10.50
2018-10-17T03:40:09.944Z,11.63
2018-10-17T03:42:38.195Z,11.00
2018-10-17T03:45:06.938Z,10.60
2018-10-17T03:47:35.278Z,10.90
2018-10-17T03:50:03.644Z,11.30
2018-10-17T03:52:31.966Z,12.10
2018-10-17T03:55:00.330Z,11.40
2018-10-17T03:57:28.782Z,11.43
2018-10-17T03:59:57.320Z,11.00
2018-10-17T04:02:25.643Z,12.23
2018-10-17T04:04:54.300Z,11.17
2018-10-17T04:07:22.645Z,11.47
2018-10-17T04:09:51.020Z,11.03
2018-10-17T04:12:19.289Z,10.77
2018-10-17T04:14:47.595Z,10.70
2018-10-17T04:17:15.973Z,11.00
2018-10-17T04:19:44.114Z,11.13
2018-10-17T04:22:12.333Z,11.30
2018-10-17T04:24:40.699Z,11.60
2018-10-17T04:27:09.001Z,11.70
2018-10-17T04:29:37.333Z,11.43
2018-10-17T04:32:05.625Z,11.53
2018-10-17T04:34:33.884Z,9.93
2018-10-17T04:37:02.185Z,10.13
2018-10-17T04:39:30.329Z,10.40
2018-10-17T04:41:58.512Z,11.13
2018-10-17T04:44:26.771Z,10.13
2018-10-17T04:46:55.923Z,9.60
2018-10-17T04:49:24.184Z,11.40
2018-10-17T04:51:52.398Z,11.20
2018-10-17T04:54:20.684Z,9.90
2018-10-17T04:56:49.071Z,11.20
2018-10-17T04:59:17.314Z,10.23
2018-10-17T05:01:45.609Z,10.93
2018-10-17T05:04:13.819Z,10.43
2018-10-17T05:06:42.104Z,11.70
2018-10-17T05:09:10.895Z,10.90
2018-10-17T05:11:39.700Z,11.10
2018-10-17T05:14:08.097Z,11.20
2018-10-17T05:16:36.544Z,11.37
2018-10-17T05:19:04.938Z,13.07
2018-10-17T05:21:33.104Z,11.20
2018-10-17T05:24:01.355Z,12.10
2018-10-17T05:26:29.806Z,11.50
2018-10-17T05:28:58.350Z,10.90
2018-10-17T05:31:26.576Z,11.73
2018-10-17T05:33:54.778Z,13.23
2018-10-17T05:36:23.007Z,11.50
2018-10-17T05:38:51.231Z,12.70
2018-10-17T05:41:19.429Z,10.60
2018-10-17T05:43:47.645Z,13.33
2018-10-17T05:46:15.830Z,11.67
2018-10-17T05:48:44.022Z,12.00
2018-10-17T05:51:12.286Z,11.60
2018-10-17T05:53:40.535Z,11.77
2018-10-17T05:56:08.712Z,12.60
2018-10-17T05:58:36.989Z,11.67
2018-10-17T06:01:06.005Z,11.87
2018-10-17T06:03:34.284Z,11.73
2018-10-17T06:06:03.139Z,11.27
2018-10-17T06:08:31.350Z,11.93
2018-10-17T06:10:59.612Z,11.43
2018-10-17T06:13:27.825Z,12.30
2018-10-17T06:15:56.482Z,11.50
2018-10-17T06:18:24.666Z,11.70
2018-10-17T06:20:52.910Z,12.67
2018-10-17T06:23:21.321Z,13.00
2018-10-17T06:25:49.533Z,12.47
2018-10-17T06:28:17.826Z,12.87
2018-10-17T06:30:46.090Z,12.37
2018-10-17T06:33:14.236Z,12.40
2018-10-17T06:35:42.445Z,11.83
2018-10-17T06:38:10.658Z,12.30
2018-10-17T06:40:38.871Z,11.83
2018-10-17T06:43:07.228Z,13.30
2018-10-17T06:45:35.425Z,14.20
2018-10-17T06:48:03.608Z,13.50
2018-10-17T06:50:31.820Z,13.47
2018-10-17T06:53:01.701Z,12.80
2018-10-17T06:55:29.892Z,13.90
2018-10-17T06:57:58.124Z,12.67
2018-10-17T07:00:26.381Z,13.13
2018-10-17T07:02:54.624Z,14.20
2018-10-17T07:05:22.830Z,12.87
2018-10-17T07:07:51.096Z,14.73
2018-10-17T07:10:19.293Z,12.07
2018-10-17T07:12:47.520Z,13.90
2018-10-17T07:15:15.879Z,14.27
2018-10-17T07:17:43.976Z,13.90
2018-10-17T07:20:12.194Z,14.27
2018-10-17T07:22:40.442Z,13.97
2018-10-17T07:25:08.730Z,15.60
2018-10-17T07:27:37.391Z,15.20
2018-10-17T07:30:06.883Z,14.80
2018-10-17T07:32:35.148Z,13.90
2018-10-17T07:35:03.370Z,14.33
2018-10-17T07:37:31.803Z,14.73
2018-10-17T07:40:00.073Z,13.80
2018-10-17T07:42:28.254Z,14.00
2018-10-17T07:44:56.494Z,14.83
2018-10-17T07:47:24.697Z,15.50
2018-10-17T07:49:52.920Z,16.33
2018-10-17T07:52:21.182Z,15.17
2018-10-17T07:54:49.441Z,15.43
2018-10-17T07:57:17.613Z,17.57
2018-10-17T07:59:45.911Z,17.37
2018-10-17T08:02:14.129Z,18.27
2018-10-17T08:04:42.362Z,16.50
2018-10-17T08:07:10.717Z,18.50
2018-10-17T08:09:38.958Z,18.37
2018-10-17T08:12:07.343Z,16.47
2018-10-17T08:14:35.446Z,16.00
2018-10-17T08:17:03.783Z,16.63
2018-10-17T08:19:32.056Z,17.70
2018-10-17T08:22:00.316Z,17.23
2018-10-17T08:24:28.546Z,18.30
2018-10-17T08:26:56.771Z,19.53
2018-10-17T08:29:24.978Z,17.07
2018-10-17T08:31:53.202Z,16.73
2018-10-17T08:34:21.472Z,18.23
2018-10-17T08:36:49.966Z,15.77
2018-10-17T08:39:18.282Z,18.20
2018-10-17T08:41:46.508Z,18.10
2018-10-17T08:44:14.922Z,18.70
2018-10-17T08:46:43.116Z,19.43
2018-10-17T08:49:11.334Z,18.70
2018-10-17T08:51:39.605Z,18.23
2018-10-17T08:54:07.812Z,17.87
2018-10-17T08:56:36.028Z,19.57
2018-10-17T08:59:04.358Z,19.67
2018-10-17T09:01:32.667Z,20.67
2018-10-17T09:04:00.873Z,20.50
2018-10-17T09:06:29.126Z,19.33
2018-10-17T09:08:57.323Z,19.73
2018-10-17T09:11:25.563Z,19.20
2018-10-17T09:13:53.806Z,20.17
2018-10-17T09:16:22.561Z,21.17
2018-10-17T09:18:50.699Z,21.13
2018-10-17T09:21:19.279Z,19.20
2018-10-17T09:23:47.465Z,20.33
2018-10-17T09:26:15.684Z,21.20
2018-10-17T09:28:43.965Z,20.40
2018-10-17T09:31:12.126Z,18.27
2018-10-17T09:33:40.342Z,21.27
2018-10-17T09:36:09.414Z,19.50
2018-10-17T09:38:37.640Z,20.20
2018-10-17T09:41:05.927Z,21.23
2018-10-17T09:43:34.203Z,21.93
2018-10-17T09:46:02.492Z,20.20
2018-10-17T09:48:30.710Z,20.90
2018-10-17T09:50:58.964Z,19.47
2018-10-17T09:53:27.283Z,21.23
2018-10-17T09:55:55.446Z,20.73
2018-10-17T09:58:23.623Z,20.10
2018-10-17T10:00:57.151Z,21.17
2018-10-17T10:03:25.504Z,21.00
2018-10-17T10:05:53.729Z,20.93
2018-10-17T10:08:22.010Z,20.20
2018-10-17T10:10:50.539Z,21.40
2018-10-17T10:13:18.712Z,23.13
2018-10-17T10:15:46.905Z,21.00
2018-10-17T10:18:15.148Z,20.47
2018-10-17T10:20:43.368Z,19.87
2018-10-17T10:23:11.647Z,20.37
2018-10-17T10:25:39.918Z,21.10
2018-10-17T10:28:08.263Z,19.83
2018-10-17T10:30:36.386Z,21.37
2018-10-17T10:33:04.783Z,20.10
2018-10-17T10:35:32.978Z,19.60
2018-10-17T10:38:01.210Z,20.07
2018-10-17T10:40:30.104Z,20.70
2018-10-17T10:42:58.255Z,22.23
2018-10-17T10:45:26.538Z,23.27
2018-10-17T10:47:54.840Z,20.37
2018-10-17T10:50:23.015Z,20.50
2018-10-17T10:52:51.251Z,21.57
2018-10-17T10:55:19.386Z,21.00
2018-10-17T10:57:47.672Z,20.43
2018-10-17T11:00:16.035Z,20.40
2018-10-17T11:02:44.432Z,21.27
2018-10-17T11:05:13.081Z,21.13
2018-10-17T11:07:41.303Z,21.67
2018-10-17T11:10:09.570Z,21.80
2018-10-17T11:12:37.831Z,20.77
2018-10-17T11:15:07.179Z,19.97
2018-10-17T11:17:35.524Z,21.10
2018-10-17T11:20:03.806Z,19.87
2018-10-17T11:22:32.127Z,19.90
2018-10-17T11:25:00.416Z,22.13
2018-10-17T11:27:28.964Z,21.73
2018-10-17T11:29:57.395Z,19.27
2018-10-17T11:32:26.390Z,21.37
2018-10-17T11:34:54.872Z,21.40
2018-10-17T11:37:23.139Z,19.30
2018-10-17T11:39:51.440Z,19.03
2018-10-17T11:42:19.632Z,21.57
2018-10-17T11:44:48.042Z,19.50
2018-10-17T11:47:16.434Z,19.17
2018-10-17T11:49:45.163Z,19.73
2018-10-17T11:52:13.409Z,18.30
2018-10-17T11:54:41.609Z,19.20
2018-10-17T11:57:09.883Z,20.30
2018-10-17T11:59:38.208Z,19.27
2018-10-17T12:02:06.544Z,18.57
2018-10-17T12:04:34.913Z,17.80
2018-10-17T12:07:03.354Z,18.83
2018-10-17T12:09:31.574Z,17.60
2018-10-17T12:11:59.908Z,19.23
2018-10-17T12:14:28.272Z,17.50
2018-10-17T12:16:56.494Z,19.43
2018-10-17T12:19:24.804Z,17.77
2018-10-17T12:21:53.281Z,16.47
2018-10-17T12:24:21.607Z,16.43
2018-10-17T12:26:49.904Z,15.17
2018-10-17T12:29:18.259Z,16.47
2018-10-17T12:31:46.658Z,15.70
2018-10-17T12:34:15.126Z,15.20
2018-10-17T12:36:43.718Z,16.13
2018-10-17T12:39:13.263Z,14.00
2018-10-17T12:41:41.907Z,16.07
2018-10-17T12:44:11.234Z,15.57
2018-10-17T12:46:39.495Z,15.17
2018-10-17T12:49:07.797Z,14.10
2018-10-17T12:51:35.923Z,14.60
2018-10-17T12:54:04.390Z,12.93
2018-10-17T12:56:32.745Z,13.90
2018-10-17T12:59:01.008Z,12.30
2018-10-17T13:01:29.391Z,12.57
2018-10-17T13:03:57.739Z,14.60
2018-10-17T13:06:26.195Z,12.73
2018-10-17T13:08:54.616Z,13.27
2018-10-17T13:11:23.089Z,12.90
2018-10-17T13:13:51.361Z,12.30
2018-10-17T13:16:20.200Z,14.10
2018-10-17T13:18:48.617Z,11.80
2018-10-17T13:21:17.059Z,12.07
2018-10-17T13:23:45.344Z,11.37
2018-10-17T13:26:13.558Z,11.00
2018-10-17T13:28:43.037Z,12.10
2018-10-17T13:31:11.347Z,12.10
2018-10-17T13:33:39.466Z,11.40
2018-10-17T13:36:07.625Z,12.50
2018-10-17T13:38:35.813Z,12.07
2018-10-17T13:41:04.031Z,11.10
2018-10-17T13:43:32.233Z,10.63
2018-10-17T13:46:00.719Z,11.10
2018-10-17T13:48:29.083Z,9.67
2018-10-17T13:50:57.433Z,11.50
2018-10-17T13:53:25.780Z,10.57
2018-10-17T13:55:54.046Z,9.70
2018-10-17T13:58:22.537Z,10.27
2018-10-17T14:00:50.835Z,9.40
2018-10-17T14:03:19.201Z,10.10
2018-10-17T14:05:47.982Z,9.83
2018-10-17T14:08:16.335Z,10.83
2018-10-17T14:10:44.594Z,9.87
2018-10-17T14:13:13.022Z,10.07
2018-10-17T14:15:41.462Z,9.30
2018-10-17T14:18:09.892Z,9.00
2018-10-17T14:20:38.449Z,8.93
2018-10-17T14:23:06.781Z,9.23
2018-10-17T14:25:35.434Z,9.57
2018-10-17T14:28:03.937Z,10.60
2018-10-17T14:30:32.226Z,8.93
2018-10-17T14:33:00.581Z,8.93
2018-10-17T14:35:29.976Z,8.50
2018-10-17T14:37:58.630Z,9.73
2018-10-17T14:40:26.990Z,9.60
2018-10-17T14:42:55.655Z,9.00
2018-10-17T14:45:24.160Z,10.60
2018-10-17T14:47:52.635Z,9.43
2018-10-17T14:50:20.905Z,9.80
2018-10-17T14:52:49.194Z,10.27
2018-10-17T14:55:17.778Z,11.27
2018-10-17T14:57:46.077Z,10.57
2018-10-17T15:00:15.434Z,9.70
2018-10-17T15:02:44.538Z,9.53
2018-10-17T15:05:13.054Z,9.27
2018-10-17T15:07:42.373Z,9.47
2018-10-17T15:10:10.801Z,9.20
2018-10-17T15:12:39.243Z,9.90
2018-10-17T15:15:09.292Z,9.10
2018-10-17T15:17:38.872Z,10.03
2018-10-17T15:20:07.430Z,9.90
2018-10-17T15:22:35.697Z,10.27
2018-10-17T15:25:04.170Z,9.37
2018-10-17T15:27:32.554Z,8.90
2018-10-17T15:30:01.262Z,9.97
2018-10-17T15:32:30.430Z,8.90
2018-10-17T15:34:58.696Z,9.00
2018-10-17T15:37:26.927Z,9.00
2018-10-17T15:39:55.263Z,8.70
2018-10-17T15:42:23.521Z,8.77
2018-10-17T15:47:11.600Z,8.90
2018-10-17T15:49:39.865Z,8.87
2018-10-17T15:52:08.153Z,8.80
2018-10-17T15:54:37.232Z,9.23
2018-10-17T15:57:05.810Z,8.57
2018-10-17T15:59:34.016Z,10.20
2018-10-17T16:02:02.382Z,9.00
2018-10-17T16:04:30.517Z,9.07
2018-10-17T16:06:58.783Z,10.03
2018-10-17T16:09:27.020Z,9.10
2018-10-17T16:11:55.247Z,8.93
2018-10-17T16:14:23.415Z,9.33
2018-10-17T16:16:51.677Z,9.13
2018-10-17T16:19:19.894Z,8.70
2018-10-17T16:21:48.088Z,9.87
2018-10-17T16:24:16.399Z,9.47
2018-10-17T16:26:44.580Z,9.07
2018-10-17T16:29:12.774Z,10.93
2018-10-17T16:31:41.034Z,9.47
2018-10-17T16:34:09.255Z,9.77
2018-10-17T16:36:37.528Z,9.93
2018-10-17T16:39:08.276Z,9.50
2018-10-17T16:41:36.538Z,10.70
2018-10-17T16:44:05.469Z,10.33
2018-10-17T16:46:33.680Z,16.67
2018-10-17T16:49:02.073Z,14.00
2018-10-17T16:51:30.478Z,13.77
2018-10-17T16:53:58.788Z,12.23
2018-10-17T16:56:27.137Z,13.00
2018-10-17T16:58:56.982Z,12.50
2018-10-17T17:01:25.307Z,12.47
2018-10-17T17:03:53.621Z,12.40
2018-10-17T17:06:21.824Z,12.30
2018-10-17T17:08:50.054Z,12.13
2018-10-17T17:11:18.299Z,12.87
2018-10-17T17:13:46.523Z,12.03
2018-10-17T17:16:14.803Z,12.13
2018-10-17T17:18:43.060Z,12.47
2018-10-17T17:21:11.411Z,13.03
2018-10-17T17:23:39.518Z,12.83
2018-10-17T17:26:07.736Z,10.70
2018-10-17T17:28:35.998Z,10.70
2018-10-17T17:31:04.239Z,11.83
2018-10-17T17:33:32.500Z,11.47
2018-10-17T17:36:01.183Z,9.53
2018-10-17T17:38:29.402Z,10.83
2018-10-17T17:40:57.605Z,11.27
2018-10-17T17:43:25.991Z,13.50
2018-10-17T17:45:54.192Z,15.50
2018-10-17T17:48:22.462Z,17.53
2018-10-17T17:50:51.530Z,16.30
2018-10-17T17:53:19.971Z,14.30
2018-10-17T17:55:48.228Z,15.30
2018-10-17T17:58:16.553Z,13.20
2018-10-17T18:00:44.762Z,13.30
2018-10-17T18:03:12.985Z,14.53
2018-10-17T18:05:41.210Z,13.43
2018-10-17T18:08:09.425Z,12.47
2018-10-17T18:10:37.646Z,11.57
2018-10-17T18:13:05.927Z,11.90
2018-10-17T18:15:34.150Z,12.43
2018-10-17T18:18:02.397Z,11.50
2018-10-17T18:20:30.995Z,11.40
2018-10-17T18:22:59.673Z,11.87
2018-10-17T18:25:27.881Z,13.23
2018-10-17T18:27:57.340Z,11.57
2018-10-17T18:30:25.599Z,11.73
2018-10-17T18:32:53.875Z,11.87
2018-10-17T18:35:22.130Z,12.00
2018-10-17T18:37:50.478Z,12.53
2018-10-17T18:40:18.830Z,12.03
2018-10-17T18:42:46.913Z,11.67
2018-10-17T18:45:15.274Z,11.83
2018-10-17T18:47:43.532Z,12.40
2018-10-17T18:50:11.834Z,11.03
2018-10-17T18:52:40.068Z,10.97
2018-10-17T18:55:08.715Z,12.10
2018-10-17T18:57:36.995Z,11.60
2018-10-17T19:00:07.258Z,12.30
2018-10-17T19:02:35.547Z,12.20
2018-10-17T19:05:03.765Z,12.13
2018-10-17T19:07:32.052Z,11.07
2018-10-17T19:10:00.306Z,12.30
2018-10-17T19:12:28.977Z,11.63
2018-10-17T19:14:57.228Z,11.70
2018-10-17T19:17:25.439Z,12.13
2018-10-17T19:19:53.613Z,12.47
2018-10-17T19:22:21.846Z,13.20
2018-10-17T19:24:50.130Z,12.07
2018-10-17T19:27:18.304Z,14.20
2018-10-17T19:29:46.661Z,15.30
2018-10-17T19:32:14.918Z,13.70
2018-10-17T19:34:43.178Z,14.07
2018-10-17T19:37:11.419Z,14.60
2018-10-17T19:39:39.672Z,12.97
2018-10-17T19:42:08.375Z,13.93
2018-10-17T19:44:36.577Z,14.37
2018-10-17T19:47:04.842Z,13.67
2018-10-17T19:49:33.138Z,13.70
2018-10-17T19:52:01.426Z,13.30
2018-10-17T19:54:29.688Z,14.40
2018-10-17T19:56:58.009Z,13.50
2018-10-17T19:59:26.264Z,14.63
2018-10-17T20:01:54.708Z,13.70
2018-10-17T20:04:22.989Z,14.00
2018-10-17T20:06:52.298Z,16.00
2018-10-17T20:09:20.552Z,13.57
2018-10-17T20:11:48.779Z,13.13
2018-10-17T20:14:17.216Z,13.70
2018-10-17T20:16:45.421Z,12.57
2018-10-17T20:19:13.750Z,14.57
2018-10-17T20:21:42.012Z,14.60
2018-10-17T20:24:10.227Z,14.30
2018-10-17T20:26:38.526Z,13.30
2018-10-17T20:29:06.808Z,13.20
2018-10-17T20:31:35.071Z,12.77
2018-10-17T20:34:03.326Z,14.70
2018-10-17T20:36:31.579Z,14.77
2018-10-17T20:38:59.808Z,13.20
2018-10-17T20:41:28.068Z,13.00
2018-10-17T20:43:56.415Z,12.07
2018-10-17T20:46:24.621Z,13.30
2018-10-17T20:48:52.871Z,14.80
2018-10-17T20:51:21.132Z,13.20
2018-10-17T20:53:49.418Z,14.10
2018-10-17T20:56:17.779Z,13.13
2018-10-17T20:58:45.989Z,13.77
2018-10-17T21:01:14.234Z,13.10
2018-10-17T21:03:43.438Z,15.67
2018-10-17T21:06:11.698Z,13.73
2018-10-17T21:08:39.953Z,13.27
2018-10-17T21:11:08.252Z,15.90
2018-10-17T21:13:36.434Z,13.50
2018-10-17T21:16:04.820Z,12.63
2018-10-17T21:18:33.087Z,14.40
2018-10-17T21:21:01.847Z,14.30
2018-10-17T21:23:30.125Z,14.20
2018-10-17T21:25:58.347Z,14.37
2018-10-17T21:28:26.592Z,15.03
2018-10-17T21:30:54.863Z,13.70
2018-10-17T21:33:23.099Z,14.07
2018-10-17T21:35:51.357Z,13.70
2018-10-17T21:38:19.661Z,12.63
2018-10-17T21:40:47.762Z,14.80
2018-10-17T21:43:15.974Z,13.80
2018-10-17T21:45:44.208Z,14.43
2018-10-17T21:48:12.428Z,14.27
2018-10-17T21:50:40.616Z,14.43
2018-10-17T21:53:09.257Z,16.20
2018-10-17T21:55:37.470Z,15.80
2018-10-17T21:58:05.751Z,15.50
2018-10-17T22:00:34.634Z,14.93
2018-10-17T22:03:02.829Z,15.17
2018-10-17T22:05:31.008Z,15.60
2018-10-17T22:07:59.244Z,14.03
2018-10-17T22:10:27.491Z,12.97
2018-10-17T22:12:55.757Z,12.27
2018-10-17T22:15:23.976Z,14.07
2018-10-17T22:17:53.175Z,15.27
2018-10-17T22:20:21.359Z,14.43
2018-10-17T22:22:49.703Z,14.63
2018-10-17T22:25:17.911Z,13.70
2018-10-17T22:27:46.107Z,14.30
2018-10-17T22:30:14.342Z,15.10
2018-10-17T22:32:42.618Z,15.13
2018-10-17T22:35:10.893Z,15.00
2018-10-17T22:37:39.103Z,14.40
2018-10-17T22:40:07.342Z,15.33
2018-10-17T22:42:35.543Z,14.27
2018-10-17T22:45:03.817Z,14.53
2018-10-17T22:47:32.051Z,13.63
2018-10-17T22:50:00.319Z,13.23
2018-10-17T22:52:28.476Z,13.97
2018-10-17T22:54:56.732Z,13.50
2018-10-17T22:57:24.959Z,12.67
2018-10-17T22:59:53.247Z,13.63
2018-10-17T23:02:21.483Z,14.13
2018-10-17T23:04:49.830Z,15.40
2018-10-17T23:07:18.100Z,13.73
2018-10-17T23:09:46.298Z,14.70
2018-10-17T23:12:14.573Z,14.10
2018-10-17T23:14:42.759Z,15.00
2018-10-17T23:17:11.002Z,15.00
2018-10-17T23:19:39.206Z,13.57
2018-10-17T23:22:07.372Z,15.30
2018-10-17T23:24:35.622Z,15.10
2018-10-17T23:27:03.857Z,14.00
2018-10-17T23:29:32.099Z,13.50
2018-10-17T23:32:00.447Z,13.03
2018-10-17T23:34:28.610Z,12.57
2018-10-17T23:36:56.818Z,12.67
2018-10-17T23:39:25.158Z,13.30
2018-10-17T23:41:53.412Z,13.47
2018-10-17T23:44:21.638Z,13.30
2018-10-17T23:46:49.908Z,13.60
2018-10-17T23:49:18.321Z,14.00
2018-10-17T23:51:46.514Z,12.87
2018-10-17T23:54:15.557Z,12.90
2018-10-17T23:56:43.715Z,12.87
2018-10-17T23:59:11.937Z,12.93
